Douglas Observed Data For Previous 48 Hours

Caption
Day and Hour Reservoir Elevation (behind dam)* Tailwater Elevation (below dam)* Average Hourly Discharge*
11/17/2017 2 AM EST 965.90 874.74 13,459
11/17/2017 3 AM EST 965.85 874.71 13,494
11/17/2017 4 AM EST 965.82 874.75 13,485
11/17/2017 5 AM EST 965.79 874.77 13,505
11/17/2017 6 AM EST 965.75 874.70 13,506
11/17/2017 7 AM EST 965.70 874.79 13,516
11/17/2017 8 AM EST 965.64 876.06 17,565
11/17/2017 9 AM EST 965.58 876.12 17,721
11/17/2017 10 AM EST 965.53 876.12 17,715
11/17/2017 11 AM EST 965.45 876.08 17,689
11/17/2017 12 PM EST 965.40 874.73 13,557
11/17/2017 1 PM EST 965.37 874.70 13,443
11/17/2017 2 PM EST 965.32 874.74 13,475
11/17/2017 3 PM EST 965.28 874.73 13,436
11/17/2017 4 PM EST 965.23 874.79 13,468
11/17/2017 5 PM EST 965.19 874.71 13,454
11/17/2017 6 PM EST 965.17 874.72 13,449
11/17/2017 7 PM EST 965.13 874.71 13,394
11/17/2017 8 PM EST 965.07 874.71 13,490
11/17/2017 9 PM EST 965.04 874.76 13,468
11/17/2017 10 PM EST 965.03 873.33 9,329
11/17/2017 11 PM EST - 999.00 - 999.00 9,269
11/18/2017 12 AM EST 964.98 873.28 9,209
11/18/2017 1 AM EST 964.95 873.25 9,195
11/18/2017 2 AM EST 964.95 873.21 9,209
11/18/2017 3 AM EST 964.91 873.27 9,226
11/18/2017 4 AM EST 964.88 873.23 9,149
11/18/2017 5 AM EST 964.87 873.27 9,202
11/18/2017 6 AM EST 964.85 873.21 9,207
11/18/2017 7 AM EST - 999.00 - 999.00 9,211
11/18/2017 8 AM EST 964.79 873.28 9,215
11/18/2017 9 AM EST 964.78 873.23 9,208
11/18/2017 10 AM EST 964.77 873.24 9,205
11/18/2017 11 AM EST 964.74 873.20 9,232
11/18/2017 12 PM EST 964.69 873.20 9,159
11/18/2017 1 PM EST 964.66 873.21 9,194
11/18/2017 2 PM EST 964.63 873.23 9,206
11/18/2017 3 PM EST 964.64 873.24 9,201
11/18/2017 4 PM EST 964.60 873.19 9,216
11/18/2017 5 PM EST 964.55 873.27 9,190
11/18/2017 6 PM EST 964.55 873.26 9,219
11/18/2017 7 PM EST 964.52 873.20 9,196
11/18/2017 8 PM EST 964.51 873.23 9,164
11/18/2017 9 PM EST 964.47 873.21 9,196
11/18/2017 10 PM EST 964.38 873.20 9,178
11/18/2017 11 PM EST 964.42 873.23 9,227
11/19/2017 12 AM EST 964.47 873.28 9,193
11/19/2017 1 AM EST 964.44 871.68 4,667
11/19/2017 2 AM EST 964.47 869.58 95
11/19/2017 3 AM EST 964.47 868.91 0

Elevations are in feet above sea level. Discharges are in cubic feet per second and are reported at the end of the hour.